createdAt,value
2023-01-20T00:00:13.686Z,52.18
2023-01-20T00:03:04.488Z,52.13
2023-01-20T00:05:35.207Z,52.21
2023-01-20T00:08:06.276Z,52.28
2023-01-20T00:10:36.885Z,52.46
2023-01-20T00:13:07.704Z,52.50
2023-01-20T00:15:38.389Z,52.55
2023-01-20T00:18:09.199Z,52.53
2023-01-20T00:20:39.985Z,52.51
2023-01-20T00:23:10.795Z,52.55
2023-01-20T00:25:41.585Z,52.58
2023-01-20T00:28:12.413Z,52.59
2023-01-20T00:30:43.168Z,52.67
2023-01-20T00:33:14.034Z,52.69
2023-01-20T00:35:44.685Z,52.62
2023-01-20T00:38:17.809Z,52.64
2023-01-20T00:40:50.860Z,52.72
2023-01-20T00:43:21.755Z,52.76
2023-01-20T00:45:52.536Z,52.71
2023-01-20T00:48:23.338Z,52.87
2023-01-20T00:50:54.048Z,52.79
2023-01-20T00:53:24.733Z,52.86
2023-01-20T00:55:55.621Z,52.91
2023-01-20T00:58:26.260Z,52.99
2023-01-20T01:00:58.926Z,52.96
2023-01-20T01:03:30.145Z,53.09
2023-01-20T01:06:08.268Z,52.96
2023-01-20T01:08:39.401Z,53.02
2023-01-20T01:11:10.212Z,53.08
2023-01-20T01:13:41.077Z,53.06
2023-01-20T01:16:15.298Z,53.18
2023-01-20T01:18:46.412Z,53.31
2023-01-20T01:21:17.650Z,53.21
2023-01-20T01:23:48.431Z,53.22
2023-01-20T01:26:19.175Z,53.34
2023-01-20T01:28:50.615Z,53.46
2023-01-20T01:31:22.276Z,53.41
2023-01-20T01:33:53.301Z,53.74
2023-01-20T01:36:24.033Z,53.63
2023-01-20T01:38:57.888Z,53.68
2023-01-20T01:41:30.150Z,53.52
2023-01-20T01:44:08.465Z,53.66
2023-01-20T01:46:39.428Z,53.66
2023-01-20T01:49:13.327Z,53.91
2023-01-20T01:51:44.450Z,53.93
2023-01-20T01:54:16.409Z,53.99
2023-01-20T01:56:47.395Z,54.20
2023-01-20T01:59:18.078Z,54.13
2023-01-20T02:01:50.209Z,54.12
2023-01-20T02:04:22.375Z,54.01
2023-01-20T02:06:54.223Z,54.03
2023-01-20T02:09:25.025Z,54.17
2023-01-20T02:11:57.327Z,54.35
2023-01-20T02:14:28.382Z,54.34
2023-01-20T02:17:00.589Z,54.35
2023-01-20T02:19:44.649Z,54.38
2023-01-20T02:22:18.043Z,54.49
2023-01-20T02:25:06.590Z,54.51
2023-01-20T02:27:42.406Z,54.46
2023-01-20T02:30:22.423Z,54.51
2023-01-20T02:32:53.936Z,54.56
2023-01-20T02:35:25.995Z,54.39
2023-01-20T02:38:00.206Z,54.67
2023-01-20T02:40:32.016Z,54.60
2023-01-20T02:43:05.075Z,54.62
2023-01-20T02:45:37.232Z,54.52
2023-01-20T02:48:09.722Z,54.88
2023-01-20T02:50:41.681Z,54.86
2023-01-20T02:53:12.542Z,54.88
2023-01-20T02:55:44.041Z,55.09
2023-01-20T02:58:15.735Z,55.13
2023-01-20T03:00:48.749Z,55.05
2023-01-20T03:03:20.079Z,55.13
2023-01-20T03:05:53.247Z,55.08
2023-01-20T03:08:24.565Z,55.00
2023-01-20T03:10:55.825Z,55.10
2023-01-20T03:13:27.655Z,55.16
2023-01-20T03:15:59.615Z,55.16
2023-01-20T03:18:31.155Z,55.33
2023-01-20T03:21:02.094Z,55.37
2023-01-20T03:23:33.513Z,55.33
2023-01-20T03:26:06.617Z,55.35
2023-01-20T03:28:37.317Z,55.32
2023-01-20T03:31:11.690Z,55.35
2023-01-20T03:33:42.610Z,55.45
2023-01-20T03:36:13.413Z,55.33
2023-01-20T03:38:44.324Z,55.61
2023-01-20T03:41:18.530Z,55.48
2023-01-20T03:43:54.073Z,55.67
2023-01-20T03:46:25.835Z,55.92
2023-01-20T03:48:59.133Z,55.94
2023-01-20T03:51:31.588Z,56.17
2023-01-20T03:54:02.892Z,55.97
2023-01-20T03:56:36.911Z,56.09
2023-01-20T03:59:07.683Z,56.27
2023-01-20T04:01:40.035Z,56.19
2023-01-20T04:04:11.327Z,56.43
2023-01-20T04:06:42.298Z,56.61
2023-01-20T04:09:14.838Z,56.69
2023-01-20T04:11:45.757Z,56.62
2023-01-20T04:14:16.502Z,56.74
2023-01-20T04:16:51.977Z,56.75
2023-01-20T04:19:22.715Z,56.74
2023-01-20T04:21:55.091Z,56.74
2023-01-20T04:24:27.552Z,56.89
2023-01-20T04:26:58.894Z,56.82
2023-01-20T04:29:30.242Z,56.95
2023-01-20T04:32:02.073Z,56.89
2023-01-20T04:34:33.660Z,57.03
2023-01-20T04:37:05.851Z,57.16
2023-01-20T04:39:37.386Z,57.07
2023-01-20T04:42:08.840Z,57.01
2023-01-20T04:44:40.210Z,57.11
2023-01-20T04:47:11.548Z,57.03
2023-01-20T04:49:43.121Z,57.21
2023-01-20T04:52:14.733Z,56.93
2023-01-20T04:54:46.095Z,57.02
2023-01-20T04:57:17.524Z,57.06
2023-01-20T04:59:50.040Z,57.19
2023-01-20T05:02:21.760Z,57.18
2023-01-20T05:04:54.088Z,57.23
2023-01-20T05:07:25.465Z,57.34
2023-01-20T05:09:56.772Z,57.28
2023-01-20T05:12:28.346Z,57.42
2023-01-20T05:14:59.822Z,57.43
2023-01-20T05:17:31.227Z,57.35
2023-01-20T05:20:02.833Z,57.56
2023-01-20T05:22:34.861Z,57.50
2023-01-20T05:25:07.012Z,57.59
2023-01-20T05:27:38.713Z,57.68
2023-01-20T05:30:11.500Z,57.62
2023-01-20T05:32:42.857Z,57.56
2023-01-20T05:35:40.393Z,57.70
2023-01-20T05:38:11.931Z,57.74
2023-01-20T05:40:43.512Z,57.76
2023-01-20T05:43:15.982Z,57.68
2023-01-20T05:45:47.231Z,57.76
2023-01-20T05:48:18.692Z,57.78
2023-01-20T05:50:50.113Z,57.83
2023-01-20T05:53:23.252Z,57.75
2023-01-20T05:56:02.165Z,57.81
2023-01-20T05:58:34.444Z,57.86
2023-01-20T06:01:09.342Z,57.90
2023-01-20T06:03:40.967Z,58.02
2023-01-20T06:06:15.772Z,58.00
2023-01-20T06:08:47.354Z,58.01
2023-01-20T06:11:19.239Z,58.04
2023-01-20T06:13:50.868Z,58.10
2023-01-20T06:16:22.610Z,58.18
2023-01-20T06:18:54.365Z,58.26
2023-01-20T06:21:49.729Z,58.21
2023-01-20T06:24:21.619Z,58.29
2023-01-20T06:26:53.122Z,58.30
2023-01-20T06:29:25.291Z,58.31
2023-01-20T06:31:56.831Z,58.27
2023-01-20T06:34:29.997Z,58.37
2023-01-20T06:37:02.461Z,58.33
2023-01-20T06:39:34.110Z,58.41
2023-01-20T06:42:06.209Z,58.43
2023-01-20T06:44:38.037Z,58.44
2023-01-20T06:47:09.834Z,58.43
2023-01-20T06:49:41.519Z,58.47
2023-01-20T06:52:36.995Z,58.57
2023-01-20T06:55:09.183Z,58.50
2023-01-20T06:57:41.361Z,58.54
2023-01-20T07:00:14.990Z,58.49
2023-01-20T07:02:46.252Z,58.50
2023-01-20T07:05:17.956Z,58.55
2023-01-20T07:07:50.245Z,58.55
2023-01-20T07:10:22.159Z,58.69
2023-01-20T07:12:53.625Z,58.57
2023-01-20T07:15:25.205Z,58.65
2023-01-20T07:17:56.722Z,58.59
2023-01-20T07:20:28.486Z,58.75
2023-01-20T07:23:02.130Z,58.68
2023-01-20T07:25:34.984Z,58.60
2023-01-20T07:28:06.528Z,58.66
2023-01-20T07:30:38.169Z,58.69
2023-01-20T07:33:09.723Z,58.70
2023-01-20T07:35:41.608Z,58.55
2023-01-20T07:38:13.394Z,58.70
2023-01-20T07:40:46.027Z,58.59
2023-01-20T07:43:17.564Z,58.61
2023-01-20T07:45:49.147Z,58.58
2023-01-20T07:48:21.228Z,58.51
2023-01-20T07:50:57.983Z,58.59
2023-01-20T07:53:29.726Z,58.53
2023-01-20T07:56:03.176Z,58.63
2023-01-20T07:58:34.930Z,58.52
2023-01-20T08:01:11.762Z,58.51
2023-01-20T08:03:45.965Z,58.57
2023-01-20T08:06:21.600Z,58.58
2023-01-20T08:08:53.249Z,58.64
2023-01-20T08:11:24.902Z,58.61
2023-01-20T08:13:56.412Z,58.66
2023-01-20T08:16:28.207Z,58.66
2023-01-20T08:18:59.436Z,58.69
2023-01-20T08:21:32.064Z,58.60
2023-01-20T08:24:04.735Z,58.61
2023-01-20T08:26:37.083Z,58.80
2023-01-20T08:29:09.617Z,58.65
2023-01-20T08:31:41.630Z,58.61
2023-01-20T08:34:13.547Z,58.64
2023-01-20T08:36:45.164Z,58.65
2023-01-20T08:39:18.664Z,58.68
2023-01-20T08:41:52.066Z,58.75
2023-01-20T08:44:23.442Z,58.72
2023-01-20T08:46:58.288Z,58.77
2023-01-20T08:49:29.843Z,58.78
2023-01-20T08:52:01.989Z,58.70
2023-01-20T08:54:34.796Z,58.71
2023-01-20T08:57:06.275Z,58.73
2023-01-20T08:59:37.526Z,58.74
2023-01-20T09:02:10.548Z,58.71
2023-01-20T09:04:42.205Z,58.77
2023-01-20T09:07:13.933Z,58.66
2023-01-20T09:09:45.514Z,58.76
2023-01-20T09:12:18.032Z,58.72
2023-01-20T09:14:49.423Z,58.80
2023-01-20T09:17:21.240Z,58.78
2023-01-20T09:19:52.989Z,58.83
2023-01-20T09:22:24.390Z,58.80
2023-01-20T09:24:55.663Z,58.74
2023-01-20T09:27:27.123Z,58.84
2023-01-20T09:29:58.687Z,58.82
2023-01-20T09:32:30.239Z,58.79
2023-01-20T09:35:01.517Z,58.82
2023-01-20T09:37:50.553Z,58.83
2023-01-20T09:40:40.376Z,58.80
2023-01-20T09:43:34.372Z,58.81
2023-01-20T09:46:09.204Z,58.71
2023-01-20T09:49:00.685Z,58.77
2023-01-20T09:51:50.305Z,58.80
2023-01-20T09:54:22.358Z,58.72
2023-01-20T09:56:54.004Z,58.75
2023-01-20T09:59:26.563Z,58.72
2023-01-20T10:01:58.628Z,58.65
2023-01-20T10:04:33.230Z,58.58
2023-01-20T10:07:08.438Z,58.61
2023-01-20T10:09:41.885Z,58.61
2023-01-20T10:12:14.605Z,58.52
2023-01-20T10:14:46.742Z,58.57
2023-01-20T10:17:19.537Z,58.60
2023-01-20T10:19:51.848Z,58.60
2023-01-20T10:22:24.282Z,58.58
2023-01-20T10:24:56.658Z,58.55
2023-01-20T10:27:28.262Z,58.54
2023-01-20T10:30:00.466Z,58.57
2023-01-20T10:32:33.535Z,58.51
2023-01-20T10:35:09.042Z,58.41
2023-01-20T10:37:40.455Z,58.25
2023-01-20T10:40:17.275Z,58.28
2023-01-20T10:42:49.493Z,58.32
2023-01-20T10:45:21.378Z,58.26
2023-01-20T10:47:53.639Z,58.31
2023-01-20T10:50:28.619Z,58.30
2023-01-20T10:53:19.169Z,58.26
2023-01-20T10:55:57.234Z,58.21
2023-01-20T10:58:30.066Z,58.04
2023-01-20T11:01:02.984Z,57.82
2023-01-20T11:03:35.910Z,57.79
2023-01-20T11:06:07.723Z,57.71
2023-01-20T11:08:38.979Z,57.61
2023-01-20T11:11:12.810Z,57.48
2023-01-20T11:13:44.707Z,57.32
2023-01-20T11:16:18.151Z,57.31
2023-01-20T11:18:57.338Z,57.33
2023-01-20T11:21:30.017Z,57.18
2023-01-20T11:24:01.574Z,57.17
2023-01-20T11:26:36.060Z,57.03
2023-01-20T11:29:26.037Z,56.99
2023-01-20T11:31:57.521Z,56.84
2023-01-20T11:34:29.364Z,56.90
2023-01-20T11:40:06.147Z,56.76
2023-01-20T11:42:44.974Z,56.74
2023-01-20T11:45:26.672Z,56.77
2023-01-20T11:48:02.037Z,56.68
2023-01-20T11:50:35.392Z,56.58
2023-01-20T11:53:28.603Z,56.59
2023-01-20T11:55:59.990Z,56.57
2023-01-20T11:58:33.404Z,56.38
2023-01-20T12:01:05.405Z,56.15
2023-01-20T12:03:40.504Z,56.13
2023-01-20T12:06:14.202Z,56.01
2023-01-20T12:08:46.921Z,56.07
2023-01-20T12:11:18.704Z,55.97
2023-01-20T12:14:11.368Z,55.97
2023-01-20T12:16:42.223Z,55.82
2023-01-20T12:19:15.105Z,55.62
2023-01-20T12:21:47.551Z,55.50
2023-01-20T12:24:20.263Z,55.46
2023-01-20T12:26:51.115Z,55.37
2023-01-20T12:29:23.025Z,55.33
2023-01-20T12:31:54.695Z,55.21
2023-01-20T12:34:27.693Z,55.16
2023-01-20T12:37:02.004Z,55.03
2023-01-20T12:39:45.130Z,55.06
2023-01-20T12:42:29.798Z,55.00
2023-01-20T12:45:01.221Z,54.85
2023-01-20T12:47:39.042Z,54.79
2023-01-20T12:50:15.574Z,54.71
2023-01-20T12:52:50.116Z,54.67
2023-01-20T12:55:23.849Z,54.52
2023-01-20T12:57:57.699Z,54.43
2023-01-20T13:00:48.001Z,54.38
2023-01-20T13:03:24.927Z,54.52
2023-01-20T13:06:09.084Z,54.42
2023-01-20T13:08:41.865Z,54.26
2023-01-20T13:11:15.854Z,54.29
2023-01-20T13:13:57.342Z,54.24
2023-01-20T13:16:32.813Z,53.95
2023-01-20T13:19:07.297Z,53.87
2023-01-20T13:21:38.078Z,53.85
2023-01-20T13:24:09.060Z,53.77
2023-01-20T13:26:40.187Z,53.68
2023-01-20T13:29:14.920Z,53.71
2023-01-20T13:31:46.526Z,53.48
2023-01-20T13:34:37.106Z,53.44
2023-01-20T13:37:23.592Z,53.29
2023-01-20T13:39:55.676Z,53.24
2023-01-20T13:42:30.246Z,53.14
2023-01-20T13:45:20.188Z,53.10
2023-01-20T13:47:52.647Z,53.01
2023-01-20T13:50:25.085Z,53.00
2023-01-20T13:53:06.205Z,52.97
2023-01-20T13:55:52.813Z,52.96
2023-01-20T13:58:23.947Z,52.91
2023-01-20T14:00:56.222Z,52.86
2023-01-20T14:03:29.133Z,52.79
2023-01-20T14:06:01.017Z,52.72
2023-01-20T14:08:32.305Z,52.75
2023-01-20T14:11:08.030Z,52.54
2023-01-20T14:13:38.759Z,52.75
2023-01-20T14:16:18.198Z,52.82
2023-01-20T14:18:49.060Z,52.84
2023-01-20T14:21:21.693Z,52.72
2023-01-20T14:23:52.638Z,52.79
2023-01-20T14:26:24.184Z,52.79
2023-01-20T14:28:55.375Z,52.73
2023-01-20T14:31:36.764Z,52.63
2023-01-20T14:34:23.469Z,52.61
2023-01-20T14:36:54.985Z,52.35
2023-01-20T14:39:25.905Z,52.23
2023-01-20T14:41:57.007Z,52.14
2023-01-20T14:44:29.447Z,52.15
2023-01-20T14:47:01.922Z,51.99
2023-01-20T14:49:34.178Z,51.96
2023-01-20T14:52:05.299Z,51.87
2023-01-20T14:54:37.429Z,51.97
2023-01-20T14:57:26.371Z,51.87
2023-01-20T15:00:19.835Z,51.76
2023-01-20T15:03:05.315Z,51.94
2023-01-20T15:05:41.944Z,51.91
2023-01-20T15:08:24.522Z,51.89
2023-01-20T15:11:12.130Z,51.96
2023-01-20T15:13:43.435Z,51.87
2023-01-20T15:16:19.259Z,51.90
2023-01-20T15:19:04.421Z,51.82
2023-01-20T15:21:36.514Z,51.88
2023-01-20T15:24:10.184Z,51.90
2023-01-20T15:26:41.003Z,51.88
2023-01-20T15:29:19.982Z,51.86
2023-01-20T15:31:51.435Z,51.85
2023-01-20T15:34:23.044Z,51.88
2023-01-20T15:36:55.204Z,51.81
2023-01-20T15:39:29.374Z,51.79
2023-01-20T15:42:01.652Z,51.86
2023-01-20T15:44:32.380Z,51.78
2023-01-20T15:47:03.313Z,51.88
2023-01-20T15:49:34.089Z,51.94
2023-01-20T15:52:04.977Z,52.00
2023-01-20T15:54:35.873Z,52.02
2023-01-20T15:57:06.605Z,52.21
2023-01-20T15:59:37.365Z,52.12
2023-01-20T16:02:10.926Z,52.13
2023-01-20T16:04:41.967Z,52.32
2023-01-20T16:07:13.584Z,52.37
2023-01-20T16:09:45.015Z,52.56
2023-01-20T16:12:16.053Z,52.53
2023-01-20T16:14:47.058Z,52.60
2023-01-20T16:17:19.257Z,52.75
2023-01-20T16:19:50.550Z,52.69
2023-01-20T16:22:21.250Z,52.84
2023-01-20T16:24:52.747Z,52.82
2023-01-20T16:27:23.844Z,52.99
2023-01-20T16:29:56.145Z,53.00
2023-01-20T16:32:27.281Z,53.12
2023-01-20T16:34:58.993Z,53.21
2023-01-20T16:37:29.823Z,53.33
2023-01-20T16:40:01.055Z,53.48
2023-01-20T16:42:32.191Z,53.51
2023-01-20T16:45:03.046Z,53.60
2023-01-20T16:47:33.837Z,53.72
2023-01-20T16:50:04.707Z,53.62
2023-01-20T16:52:35.492Z,53.74
2023-01-20T16:55:06.962Z,53.84
2023-01-20T16:57:37.825Z,53.82
2023-01-20T17:00:10.248Z,53.83
2023-01-20T17:02:41.066Z,53.85
2023-01-20T17:05:14.016Z,53.89
2023-01-20T17:07:44.806Z,53.98
2023-01-20T17:10:16.294Z,54.07
2023-01-20T17:12:48.908Z,54.08
2023-01-20T17:15:20.022Z,54.08
2023-01-20T17:17:51.169Z,54.14
2023-01-20T17:20:22.001Z,54.24
2023-01-20T17:22:53.256Z,54.29
2023-01-20T17:25:24.258Z,54.38
2023-01-20T17:27:55.237Z,54.36
2023-01-20T17:30:26.720Z,54.52
2023-01-20T17:32:57.732Z,54.56
2023-01-20T17:35:29.318Z,54.77
2023-01-20T17:38:00.224Z,54.91
2023-01-20T17:40:31.990Z,54.97
2023-01-20T17:43:04.466Z,55.17
2023-01-20T17:45:35.353Z,55.29
2023-01-20T17:48:06.316Z,55.57
2023-01-20T17:50:39.067Z,55.68
2023-01-20T17:53:10.329Z,55.74
2023-01-20T17:55:41.251Z,55.78
2023-01-20T17:58:13.676Z,56.07
2023-01-20T18:00:44.532Z,56.15
2023-01-20T18:03:16.257Z,56.22
2023-01-20T18:05:47.167Z,56.44
2023-01-20T18:08:17.838Z,56.57
2023-01-20T18:10:48.728Z,56.64
2023-01-20T18:13:19.463Z,56.79
2023-01-20T18:15:50.308Z,56.93
2023-01-20T18:18:21.060Z,57.10
2023-01-20T18:20:52.035Z,57.04
2023-01-20T18:23:22.729Z,57.15
2023-01-20T18:25:56.761Z,57.34
2023-01-20T18:28:28.548Z,57.60
2023-01-20T18:31:03.299Z,57.59
2023-01-20T18:33:34.340Z,57.59
2023-01-20T18:36:05.440Z,57.89
2023-01-20T18:38:36.297Z,57.75
2023-01-20T18:41:07.349Z,57.69
2023-01-20T18:43:38.149Z,57.85
2023-01-20T18:46:10.373Z,57.62
2023-01-20T18:48:41.346Z,57.53
2023-01-20T18:51:14.988Z,57.82
2023-01-20T18:53:46.215Z,57.90
2023-01-20T18:56:19.066Z,58.29
2023-01-20T18:58:49.848Z,58.39
2023-01-20T19:01:21.238Z,58.36
2023-01-20T19:03:52.411Z,58.40
2023-01-20T19:06:23.627Z,58.72
2023-01-20T19:08:54.425Z,58.91
2023-01-20T19:11:26.271Z,58.83
2023-01-20T19:13:57.081Z,59.02
2023-01-20T19:16:28.502Z,58.86
2023-01-20T19:18:59.948Z,58.96
2023-01-20T19:21:34.176Z,59.21
2023-01-20T19:24:08.007Z,59.36
2023-01-20T19:26:39.287Z,59.44
2023-01-20T19:29:13.008Z,59.66
2023-01-20T19:31:44.122Z,59.63
2023-01-20T19:34:14.998Z,59.65
2023-01-20T19:36:46.052Z,59.76
2023-01-20T19:39:17.064Z,59.78
2023-01-20T19:41:48.102Z,59.84
2023-01-20T19:44:19.329Z,59.97
2023-01-20T19:46:50.103Z,60.09
2023-01-20T19:49:20.967Z,60.13
2023-01-20T19:51:51.823Z,60.09
2023-01-20T19:54:24.415Z,60.15
2023-01-20T19:56:55.332Z,60.25
2023-01-20T19:59:26.196Z,60.27
2023-01-20T20:01:57.115Z,60.27
2023-01-20T20:04:29.349Z,60.39
2023-01-20T20:07:00.185Z,60.29
2023-01-20T20:09:31.122Z,60.38
2023-01-20T20:12:06.275Z,60.55
2023-01-20T20:14:38.381Z,60.61
2023-01-20T20:17:09.321Z,60.71
2023-01-20T20:19:40.147Z,60.84
2023-01-20T20:22:11.019Z,60.93
2023-01-20T20:24:41.923Z,60.90
2023-01-20T20:27:12.937Z,60.78
2023-01-20T20:29:44.135Z,60.79
2023-01-20T20:32:16.859Z,61.17
2023-01-20T20:34:47.706Z,61.04
2023-01-20T20:37:18.406Z,60.89
2023-01-20T20:39:49.337Z,61.01
2023-01-20T20:42:20.128Z,60.81
2023-01-20T20:44:50.881Z,61.02
2023-01-20T20:47:21.657Z,61.31
2023-01-20T20:49:53.035Z,61.10
2023-01-20T20:52:24.139Z,60.82
2023-01-20T20:54:56.228Z,61.01
2023-01-20T20:57:27.186Z,60.77
2023-01-20T20:59:59.696Z,60.96
2023-01-20T21:02:30.830Z,60.95
2023-01-20T21:05:01.552Z,61.04
2023-01-20T21:07:32.433Z,61.06
2023-01-20T21:10:04.784Z,61.12
2023-01-20T21:12:35.685Z,60.93
2023-01-20T21:15:07.700Z,61.06
2023-01-20T21:17:38.692Z,60.93
2023-01-20T21:20:10.589Z,60.78
2023-01-20T21:22:41.607Z,60.96
2023-01-20T21:25:12.530Z,61.30
2023-01-20T21:27:45.165Z,61.18
2023-01-20T21:30:16.461Z,61.53
2023-01-20T21:32:47.375Z,60.98
2023-01-20T21:35:18.213Z,61.13
2023-01-20T21:37:54.374Z,61.17
2023-01-20T21:40:25.044Z,61.26
2023-01-20T21:43:17.243Z,61.54
2023-01-20T21:45:54.144Z,61.46
2023-01-20T21:48:43.099Z,61.35
2023-01-20T21:51:31.571Z,61.51
2023-01-20T21:54:02.490Z,61.33
2023-01-20T21:56:33.141Z,61.41
2023-01-20T21:59:03.948Z,61.61
2023-01-20T22:01:34.833Z,61.72
2023-01-20T22:04:05.713Z,61.41
2023-01-20T22:06:36.441Z,61.61
2023-01-20T22:09:07.262Z,61.66
2023-01-20T22:11:37.968Z,61.58
2023-01-20T22:14:08.786Z,61.38
2023-01-20T22:16:39.647Z,61.62
2023-01-20T22:19:12.830Z,61.59
2023-01-20T22:21:43.543Z,61.46
2023-01-20T22:24:14.414Z,61.62
2023-01-20T22:26:46.779Z,61.59
2023-01-20T22:29:17.752Z,61.74
2023-01-20T22:31:51.530Z,61.67
2023-01-20T22:34:23.143Z,61.41
2023-01-20T22:36:55.819Z,61.64
2023-01-20T22:39:27.856Z,61.64
2023-01-20T22:41:59.365Z,61.40
2023-01-20T22:44:30.828Z,61.91
2023-01-20T22:47:02.187Z,61.66
2023-01-20T22:49:33.775Z,61.50
2023-01-20T22:52:05.390Z,61.51
2023-01-20T22:54:36.799Z,61.48
2023-01-20T22:57:07.999Z,61.59
2023-01-20T22:59:39.587Z,61.54
2023-01-20T23:02:10.989Z,61.43
2023-01-20T23:04:42.707Z,61.54
2023-01-20T23:07:14.458Z,61.69
2023-01-20T23:09:46.541Z,61.35
2023-01-20T23:12:17.828Z,61.69
2023-01-20T23:15:02.801Z,61.58
2023-01-20T23:17:34.778Z,61.49
2023-01-20T23:20:06.942Z,61.71
2023-01-20T23:22:38.137Z,61.77
2023-01-20T23:25:10.549Z,61.69
2023-01-20T23:27:41.967Z,61.76
2023-01-20T23:30:14.343Z,61.67
2023-01-20T23:32:46.195Z,61.78
2023-01-20T23:35:17.687Z,61.96
2023-01-20T23:37:49.764Z,61.61
2023-01-20T23:40:21.748Z,61.91
2023-01-20T23:42:53.130Z,61.81
2023-01-20T23:45:24.697Z,61.96
2023-01-20T23:47:56.060Z,61.84
2023-01-20T23:50:27.389Z,61.84
2023-01-20T23:52:59.183Z,62.12
2023-01-20T23:55:30.807Z,62.02
2023-01-20T23:58:02.303Z,61.96
